Time;durP1;ratioP1;P1;durP2;ratioP2;P2;SDS_P1;SDS_P2;PMS_P1;PMS_P2;Temp;Humidity;BMP_temperature;BMP_pressure;BME280_temperature;BME280_humidity;BME280_pressure;Samples;Min_cycle;Max_cycle;Signal;HPM_P1;HPM_P2
2022/08/02 00:02:05;;;;;;;2.80;1.50;;;26.80;75.10;;;;;;5074019;28;21011;-88
2022/08/02 00:04:32;;;;;;;1.43;1.33;;;26.80;75.10;;;;;;5074060;28;20495;-81
2022/08/02 00:06:59;;;;;;;1.60;1.50;;;26.80;75.10;;;;;;5074125;28;20480;-81
2022/08/02 00:09:26;;;;;;;1.50;1.40;;;26.80;75.20;;;;;;5074282;28;20524;-81
2022/08/02 00:11:54;;;;;;;1.30;1.17;;;26.80;75.20;;;;;;5074071;28;20500;-81
2022/08/02 00:14:21;;;;;;;1.23;1.13;;;26.80;75.20;;;;;;5073801;28;20465;-88
2022/08/02 00:16:48;;;;;;;1.40;1.30;;;26.80;75.10;;;;;;5073864;28;20513;-81
2022/08/02 00:19:15;;;;;;;1.47;1.23;;;26.80;75.10;;;;;;5073284;28;20852;-82
2022/08/02 00:21:42;;;;;;;1.30;1.20;;;26.80;75.10;;;;;;5074141;28;20469;-81
2022/08/02 00:24:09;;;;;;;1.60;1.50;;;26.80;75.10;;;;;;5073752;28;20591;-86
2022/08/02 00:26:36;;;;;;;1.27;1.17;;;26.80;75.10;;;;;;5073783;28;20457;-88
2022/08/02 00:29:05;;;;;;;1.20;1.10;;;26.80;75.00;;;;;;5073977;28;20527;-81
2022/08/02 00:31:32;;;;;;;1.37;1.00;;;26.80;75.00;;;;;;5074299;28;20999;-82
2022/08/02 00:33:59;;;;;;;1.40;1.30;;;26.80;75.00;;;;;;5073495;28;22775;-81
2022/08/02 00:36:26;;;;;;;1.50;1.40;;;26.80;75.80;;;;;;5073927;28;20480;-81
2022/08/02 00:38:52;;;;;;;1.50;1.40;;;26.80;74.90;;;;;;5073570;28;20476;-81
2022/08/02 00:41:22;;;;;;;2.00;1.60;;;26.80;75.00;;;;;;5073451;28;20490;-81
2022/08/02 00:43:50;;;;;;;1.50;1.40;;;26.80;74.90;;;;;;5073756;28;20567;-81
2022/08/02 00:46:19;;;;;;;1.63;1.23;;;26.80;74.80;;;;;;5073925;28;20480;-87
2022/08/02 00:48:47;;;;;;;1.63;1.37;;;26.80;74.90;;;;;;5073483;28;20479;-88
2022/08/02 00:51:15;;;;;;;1.40;1.30;;;26.80;74.90;;;;;;5073093;28;20476;-82
2022/08/02 00:53:42;;;;;;;1.23;1.13;;;26.80;74.90;;;;;;5073595;28;20532;-81
2022/08/02 00:56:09;;;;;;;1.43;1.33;;;26.80;74.90;;;;;;5073517;28;20951;-81
2022/08/02 00:58:36;;;;;;;1.13;1.03;;;26.70;74.80;;;;;;5073517;28;20528;-88
2022/08/02 01:01:03;;;;;;;1.43;1.33;;;26.80;74.90;;;;;;5073606;28;20460;-81
2022/08/02 01:03:31;;;;;;;1.30;1.20;;;26.80;74.80;;;;;;5073398;28;20479;-81
2022/08/02 01:05:58;;;;;;;1.40;1.30;;;26.80;74.80;;;;;;5073480;28;20448;-81
2022/08/02 01:08:25;;;;;;;1.40;1.30;;;26.70;74.80;;;;;;5073434;28;20531;-81
2022/08/02 01:10:52;;;;;;;1.20;1.10;;;26.70;74.80;;;;;;5073248;28;20509;-81
2022/08/02 01:13:19;;;;;;;1.43;1.33;;;26.70;74.80;;;;;;5073709;28;20436;-81
2022/08/02 01:15:51;;;;;;;1.20;1.10;;;26.70;74.70;;;;;;5073575;28;20440;-88
2022/08/02 01:18:25;;;;;;;1.40;1.30;;;26.70;74.60;;;;;;5073363;28;20468;-82
2022/08/02 01:21:14;;;;;;;1.30;1.20;;;26.70;74.70;;;;;;5073535;28;20447;-81
2022/08/02 01:24:04;;;;;;;1.50;1.00;;;26.80;74.70;;;;;;5073451;28;20561;-88
2022/08/02 01:26:46;;;;;;;1.40;1.30;;;26.70;74.70;;;;;;5073201;28;20510;-81
2022/08/02 01:29:18;;;;;;;1.37;1.20;;;26.70;74.80;;;;;;5073112;28;20512;-81
2022/08/02 01:31:50;;;;;;;1.17;1.07;;;26.70;74.80;;;;;;5073194;28;20938;-88
2022/08/02 01:34:22;;;;;;;1.20;1.10;;;26.70;74.80;;;;;;5073178;28;20433;-81
2022/08/02 01:36:54;;;;;;;1.27;1.17;;;26.70;74.70;;;;;;5072905;28;20519;-81
2022/08/02 01:39:26;;;;;;;1.43;1.33;;;26.70;74.70;;;;;;5073157;28;20860;-81
2022/08/02 01:41:54;;;;;;;1.40;1.30;;;26.70;74.80;;;;;;5073444;28;20889;-81
2022/08/02 01:44:24;;;;;;;1.30;1.20;;;26.70;74.80;;;;;;5072771;28;21102;-81
2022/08/02 01:46:53;;;;;;;1.30;1.20;;;26.70;74.80;;;;;;5073143;28;20516;-81
2022/08/02 01:49:23;;;;;;;1.30;1.20;;;26.70;74.70;;;;;;5072657;28;20475;-81
2022/08/02 01:54:38;;;;;;;2.20;1.83;;;26.70;74.80;;;;;;5073098;28;20424;-87
2022/08/02 01:57:07;;;;;;;1.30;1.20;;;26.70;74.90;;;;;;5072704;28;20544;-81
2022/08/02 01:59:37;;;;;;;1.20;1.10;;;26.70;74.70;;;;;;5072948;28;20481;-82
2022/08/02 02:02:07;;;;;;;1.73;1.40;;;26.70;74.70;;;;;;5073624;28;20516;-81
2022/08/02 02:04:36;;;;;;;2.30;1.30;;;26.60;74.70;;;;;;5076589;28;20891;-88
2022/08/02 02:07:05;;;;;;;2.43;1.23;;;26.70;74.80;;;;;;5077033;28;20468;-88
2022/08/02 02:09:37;;;;;;;1.37;1.27;;;26.70;74.80;;;;;;5076562;28;20516;-83
2022/08/02 02:12:06;;;;;;;1.50;1.40;;;26.70;74.70;;;;;;5076389;28;20965;-81
2022/08/02 02:14:36;;;;;;;1.40;1.30;;;26.60;74.70;;;;;;5076380;28;20444;-87
2022/08/02 02:17:03;;;;;;;1.40;1.30;;;26.60;74.60;;;;;;5076434;28;21014;-81
2022/08/02 02:19:33;;;;;;;2.20;1.40;;;26.70;74.70;;;;;;5076525;28;20463;-81
2022/08/02 02:22:00;;;;;;;1.30;1.17;;;26.60;74.60;;;;;;5076322;28;20519;-81
2022/08/02 02:24:27;;;;;;;1.10;1.00;;;26.70;74.60;;;;;;5076252;28;20488;-81
2022/08/02 02:26:54;;;;;;;1.20;1.10;;;26.60;74.60;;;;;;5076028;28;20456;-81
2022/08/02 02:29:24;;;;;;;1.20;1.10;;;26.60;74.50;;;;;;5076073;28;20528;-81
2022/08/02 02:31:55;;;;;;;1.30;1.20;;;26.60;74.50;;;;;;5076299;28;20468;-84
2022/08/02 02:34:27;;;;;;;1.10;1.00;;;26.60;74.50;;;;;;5076044;28;20543;-81
2022/08/02 02:36:59;;;;;;;1.20;1.10;;;26.70;74.50;;;;;;5075743;28;20452;-81
2022/08/02 02:39:28;;;;;;;1.33;1.23;;;26.60;74.50;;;;;;5076124;28;20441;-81
2022/08/02 02:42:00;;;;;;;1.50;1.40;;;26.60;74.40;;;;;;5075890;28;20528;-81
2022/08/02 02:44:29;;;;;;;1.20;1.10;;;26.60;74.30;;;;;;5075935;28;20480;-81
2022/08/02 02:46:59;;;;;;;1.43;1.20;;;26.60;74.20;;;;;;5075742;28;20473;-81
2022/08/02 02:49:27;;;;;;;1.10;1.00;;;26.60;74.20;;;;;;5075637;28;20536;-81
2022/08/02 02:51:55;;;;;;;1.40;1.27;;;26.70;74.20;;;;;;5075788;28;20437;-88
2022/08/02 02:54:24;;;;;;;1.37;1.27;;;26.70;74.20;;;;;;5075624;28;20528;-88
2022/08/02 02:56:52;;;;;;;1.30;1.10;;;26.60;74.10;;;;;;5075462;28;20501;-81
2022/08/02 02:59:19;;;;;;;1.20;1.10;;;26.70;74.20;;;;;;5075653;28;20994;-82
2022/08/02 03:01:46;;;;;;;1.40;1.30;;;26.70;74.20;;;;;;5075640;28;20436;-88
2022/08/02 03:04:15;;;;;;;1.30;1.10;;;26.70;74.10;;;;;;5075370;28;20480;-81
2022/08/02 03:06:42;;;;;;;1.40;1.17;;;26.60;74.00;;;;;;5075813;28;20546;-81
2022/08/02 03:09:10;;;;;;;1.63;1.23;;;26.60;74.00;;;;;;5075540;28;20512;-81
2022/08/02 03:11:40;;;;;;;1.40;1.00;;;26.70;74.10;;;;;;5075428;28;20473;-88
2022/08/02 03:14:10;;;;;;;1.27;1.17;;;26.60;74.10;;;;;;5074687;28;20487;-81
2022/08/02 03:16:43;;;;;;;1.30;1.20;;;26.70;74.00;;;;;;5075427;28;20494;-88
2022/08/02 03:19:10;;;;;;;1.30;1.20;;;26.60;73.90;;;;;;5075339;28;20476;-81
2022/08/02 03:21:38;;;;;;;1.20;1.10;;;26.60;74.00;;;;;;5075145;28;20449;-88
2022/08/02 03:24:06;;;;;;;1.17;1.07;;;26.60;74.00;;;;;;5075033;28;20483;-82
2022/08/02 03:26:33;;;;;;;1.30;1.20;;;26.60;74.00;;;;;;5074963;28;20548;-81
2022/08/02 03:29:00;;;;;;;1.47;1.37;;;26.60;74.00;;;;;;5075659;28;20798;-81
2022/08/02 03:31:27;;;;;;;1.50;1.40;;;26.60;73.90;;;;;;5074887;28;20469;-81
2022/08/02 03:33:55;;;;;;;1.20;1.10;;;26.60;73.90;;;;;;5075120;28;20528;-81
2022/08/02 03:36:23;;;;;;;1.30;1.20;;;26.60;74.10;;;;;;5074869;28;20436;-81
2022/08/02 03:38:53;;;;;;;1.30;1.20;;;26.60;74.10;;;;;;5074840;28;20867;-81
2022/08/02 03:41:21;;;;;;;1.30;1.10;;;26.60;74.10;;;;;;5074927;28;20556;-81
2022/08/02 03:43:50;;;;;;;1.20;1.10;;;26.60;74.00;;;;;;5074652;28;20480;-87
2022/08/02 03:46:20;;;;;;;1.20;1.10;;;26.60;74.00;;;;;;5074743;28;20472;-81
2022/08/02 03:48:47;;;;;;;1.10;1.00;;;26.60;73.90;;;;;;5074572;28;20569;-81
2022/08/02 03:51:15;;;;;;;1.20;1.10;;;26.60;73.90;;;;;;5074527;28;20949;-81
2022/08/02 03:53:42;;;;;;;1.20;1.10;;;26.60;73.90;;;;;;5074274;28;20487;-81
2022/08/02 03:56:11;;;;;;;1.27;1.17;;;26.60;73.90;;;;;;5074268;28;20536;-85
2022/08/02 03:58:38;;;;;;;1.30;1.20;;;26.60;73.90;;;;;;5074591;28;20536;-81
2022/08/02 04:01:05;;;;;;;1.13;1.03;;;26.60;73.80;;;;;;5074492;28;20524;-86
2022/08/02 04:03:33;;;;;;;1.60;1.50;;;26.60;74.00;;;;;;5075062;28;20443;-87
2022/08/02 04:05:59;;;;;;;1.40;1.30;;;26.60;73.90;;;;;;5074560;28;20516;-81
2022/08/02 04:08:26;;;;;;;1.40;1.00;;;26.60;73.80;;;;;;5074312;28;20524;-87
2022/08/02 04:13:39;;;;;;;1.40;1.30;;;26.60;74.00;;;;;;5074394;28;20424;-87
2022/08/02 04:16:13;;;;;;;1.60;1.33;;;26.60;74.00;;;;;;5074235;28;20441;-82
2022/08/02 04:18:45;;;;;;;1.50;1.30;;;26.60;73.90;;;;;;5074096;28;20443;-81
2022/08/02 04:21:15;;;;;;;1.70;1.20;;;26.50;73.80;;;;;;5074531;28;20441;-81
2022/08/02 04:23:45;;;;;;;1.40;1.30;;;26.60;74.20;;;;;;5074750;28;20448;-81
2022/08/02 04:26:12;;;;;;;1.27;1.17;;;26.60;73.80;;;;;;5073334;28;20587;-81
2022/08/02 04:28:41;;;;;;;3.60;1.83;;;26.60;74.10;;;;;;5074650;28;20441;-81
2022/08/02 04:31:08;;;;;;;2.40;2.20;;;26.50;73.70;;;;;;5074365;28;20536;-81
2022/08/02 04:33:36;;;;;;;4.17;2.93;;;26.50;72.00;;;;;;5073844;28;20797;-81
2022/08/02 04:36:04;;;;;;;4.13;2.67;;;26.20;70.90;;;;;;5074291;28;20444;-81
2022/08/02 04:38:32;;;;;;;3.80;2.50;;;26.00;71.10;;;;;;5073831;28;20444;-81
2022/08/02 04:40:59;;;;;;;3.33;2.17;;;25.80;71.70;;;;;;5073739;28;20444;-81
2022/08/02 04:43:26;;;;;;;3.33;2.47;;;25.60;72.10;;;;;;5073790;28;20487;-81
2022/08/02 04:45:55;;;;;;;4.00;2.43;;;25.40;72.30;;;;;;5073827;28;20563;-81
2022/08/02 04:48:23;;;;;;;3.20;2.73;;;25.20;72.80;;;;;;5073607;28;20443;-93
2022/08/02 04:50:50;;;;;;;4.40;3.07;;;25.00;73.40;;;;;;5073601;28;20437;-81
2022/08/02 04:53:18;;;;;;;4.20;3.80;;;24.90;73.70;;;;;;5073552;28;20441;-81
2022/08/02 04:55:45;;;;;;;3.37;3.00;;;24.90;74.30;;;;;;5072957;28;20583;-93
2022/08/02 04:58:12;;;;;;;4.67;2.77;;;24.80;74.70;;;;;;5073763;28;20528;-81
2022/08/02 05:00:39;;;;;;;5.50;2.93;;;24.70;74.70;;;;;;5073368;28;20429;-81
2022/08/02 05:03:07;;;;;;;4.70;2.40;;;24.70;75.10;;;;;;5069523;28;20525;-83
2022/08/02 05:05:34;;;;;;;4.73;3.33;;;24.70;75.30;;;;;;5057250;28;20539;-82
2022/08/02 05:08:01;;;;;;;3.10;2.80;;;24.70;75.50;;;;;;5073158;28;20516;-82
2022/08/02 05:10:28;;;;;;;8.37;4.00;;;24.80;75.70;;;;;;5072968;28;20576;-81
2022/08/02 05:12:55;;;;;;;5.10;2.57;;;24.80;75.70;;;;;;5073211;28;20832;-82
2022/08/02 05:15:22;;;;;;;3.93;2.87;;;25.00;75.80;;;;;;5073350;28;20517;-82
2022/08/02 05:17:49;;;;;;;4.90;2.93;;;25.00;75.70;;;;;;5073287;28;20524;-94
2022/08/02 05:20:18;;;;;;;3.50;2.57;;;25.10;75.80;;;;;;5055833;28;20437;-83
2022/08/02 05:22:46;;;;;;;3.30;3.00;;;25.10;75.90;;;;;;5073942;28;20532;-81
2022/08/02 05:25:13;;;;;;;2.50;2.30;;;25.20;75.90;;;;;;5063929;28;20476;-81
2022/08/02 05:27:40;;;;;;;3.00;2.80;;;25.20;75.80;;;;;;5071111;28;20448;-87
2022/08/02 05:30:09;;;;;;;6.20;2.93;;;25.20;75.70;;;;;;5071413;28;20528;-87
2022/08/02 05:32:42;;;;;;;2.97;2.70;;;25.30;75.90;;;;;;5073383;28;20970;-79
2022/08/02 05:35:09;;;;;;;3.10;2.80;;;25.30;76.00;;;;;;5073227;28;20859;-79
2022/08/02 05:37:37;;;;;;;3.23;2.47;;;25.30;76.00;;;;;;5073746;28;20445;-79
2022/08/02 05:40:05;;;;;;;5.33;2.73;;;25.40;75.80;;;;;;5077457;28;20437;-89
2022/08/02 05:42:32;;;;;;;3.73;2.23;;;25.40;75.70;;;;;;5077810;28;20807;-86
2022/08/02 05:44:59;;;;;;;4.70;2.47;;;25.40;75.60;;;;;;5067241;28;20484;-88
2022/08/02 05:47:27;;;;;;;2.30;2.10;;;25.50;75.50;;;;;;5056516;28;20441;-80
2022/08/02 05:49:53;;;;;;;2.37;2.17;;;25.60;75.50;;;;;;5072127;28;20449;-80
2022/08/02 05:52:24;;;;;;;3.33;2.17;;;25.60;75.40;;;;;;5075813;28;20441;-80
2022/08/02 05:55:04;;;;;;;2.03;1.90;;;25.70;75.40;;;;;;5075698;28;20453;-87
2022/08/02 05:57:41;;;;;;;5.80;2.70;;;25.80;75.40;;;;;;5075758;28;20996;-80
2022/08/02 06:00:10;;;;;;;2.53;2.27;;;25.80;75.20;;;;;;5075460;28;20954;-80
2022/08/02 06:03:15;;;;;;;2.50;2.03;;;25.80;75.10;;;;;;5075717;28;20452;-82
2022/08/02 06:05:50;;;;;;;4.53;3.53;;;25.90;75.10;;;;;;5075778;28;20484;-85
2022/08/02 06:08:19;;;;;;;3.60;2.70;;;25.90;75.50;;;;;;5075703;28;20444;-87
2022/08/02 06:10:49;;;;;;;3.47;3.17;;;26.00;75.90;;;;;;5075979;28;20809;-83
2022/08/02 06:13:16;;;;;;;7.00;3.80;;;26.00;75.70;;;;;;5076579;28;20437;-84
2022/08/02 06:15:43;;;;;;;6.10;2.90;;;26.00;76.10;;;;;;5076426;28;20436;-83
2022/08/02 06:18:10;;;;;;;5.30;2.73;;;26.00;76.10;;;;;;5076354;28;20440;-83
2022/08/02 06:20:37;;;;;;;4.40;2.50;;;26.00;76.10;;;;;;5076501;28;20468;-88
2022/08/02 06:23:05;;;;;;;5.70;2.60;;;26.00;75.70;;;;;;5076217;28;20445;-87
2022/08/02 06:25:33;;;;;;;3.60;2.60;;;26.00;75.40;;;;;;5076188;28;20576;-84
2022/08/02 06:28:03;;;;;;;3.10;2.27;;;26.00;75.20;;;;;;5076276;28;20842;-84
2022/08/02 06:30:31;;;;;;;4.40;2.17;;;26.00;75.10;;;;;;5076308;28;20448;-84
2022/08/02 06:32:58;;;;;;;2.20;2.00;;;26.00;75.10;;;;;;5076139;28;20807;-88
2022/08/02 06:35:30;;;;;;;2.80;1.60;;;26.10;75.10;;;;;;5076238;28;20449;-88
2022/08/02 06:38:00;;;;;;;4.50;2.13;;;26.10;75.10;;;;;;5076245;28;20444;-88
2022/08/02 06:40:30;;;;;;;2.67;1.77;;;26.10;75.00;;;;;;5076068;28;20445;-88
2022/08/02 06:43:11;;;;;;;4.37;2.00;;;26.10;75.00;;;;;;5075887;28;20536;-88
2022/08/02 06:45:38;;;;;;;6.20;2.60;;;26.10;74.90;;;;;;5075876;28;20480;-88
2022/08/02 06:48:06;;;;;;;2.67;1.83;;;26.10;74.90;;;;;;5076017;28;20470;-88
2022/08/02 06:50:33;;;;;;;4.07;2.23;;;26.20;74.90;;;;;;5074792;28;20441;-87
2022/08/02 06:53:00;;;;;;;2.10;1.80;;;26.20;75.00;;;;;;5075807;28;20533;-83
2022/08/02 06:55:28;;;;;;;3.73;1.70;;;26.20;74.90;;;;;;5075579;28;20468;-88
2022/08/02 06:57:55;;;;;;;3.30;2.27;;;26.20;74.80;;;;;;5075669;28;20441;-84
2022/08/02 07:00:23;;;;;;;2.07;1.90;;;26.20;74.80;;;;;;5075759;28;20947;-87
2022/08/02 07:02:50;;;;;;;3.30;2.00;;;26.20;74.90;;;;;;5076009;28;20897;-84
2022/08/02 07:05:17;;;;;;;1.80;1.70;;;26.20;74.80;;;;;;5075933;28;20479;-88
2022/08/02 07:07:45;;;;;;;3.70;2.33;;;26.20;74.90;;;;;;5075743;28;20940;-81
2022/08/02 07:10:13;;;;;;;2.30;2.10;;;26.20;75.00;;;;;;5075153;28;20473;-84
2022/08/02 07:12:40;;;;;;;3.53;2.37;;;26.20;75.10;;;;;;5075531;28;20536;-84
2022/08/02 07:15:08;;;;;;;3.73;2.37;;;26.20;75.20;;;;;;5075529;28;20453;-86
2022/08/02 07:17:37;;;;;;;3.50;1.97;;;26.30;75.30;;;;;;5075942;28;21236;-90
2022/08/02 07:20:06;;;;;;;3.30;2.17;;;26.30;75.40;;;;;;5075295;28;20978;-89
2022/08/02 07:22:33;;;;;;;2.10;1.90;;;26.30;75.30;;;;;;5075503;28;20441;-89
2022/08/02 07:25:00;;;;;;;2.33;1.90;;;26.20;75.20;;;;;;5075093;28;20535;-84
2022/08/02 07:27:28;;;;;;;3.33;1.80;;;26.20;75.30;;;;;;5074903;28;20976;-83
2022/08/02 07:29:55;;;;;;;2.03;1.73;;;26.30;75.20;;;;;;5075420;28;20436;-84
2022/08/02 07:32:24;;;;;;;2.67;1.97;;;26.20;75.20;;;;;;5075339;28;20886;-83
2022/08/02 07:34:54;;;;;;;2.43;1.70;;;26.30;75.30;;;;;;5075191;28;20498;-83
2022/08/02 07:37:23;;;;;;;1.77;1.67;;;26.30;75.20;;;;;;5075131;28;20433;-84
2022/08/02 07:39:50;;;;;;;5.20;1.93;;;26.20;75.20;;;;;;5075264;28;20472;-83
2022/08/02 07:42:17;;;;;;;2.13;1.67;;;26.30;75.20;;;;;;5075187;28;20501;-84
2022/08/02 07:44:44;;;;;;;1.53;1.43;;;26.30;75.20;;;;;;5074964;28;20487;-84
2022/08/02 07:47:10;;;;;;;1.83;1.70;;;26.20;76.00;;;;;;5086356;28;20848;-83
2022/08/02 07:49:37;;;;;;;2.27;1.50;;;26.30;75.10;;;;;;5083419;28;20494;-89
2022/08/02 07:52:06;;;;;;;1.63;1.53;;;26.20;75.00;;;;;;5078101;28;20473;-84
2022/08/02 07:54:43;;;;;;;2.20;1.50;;;26.30;75.00;;;;;;5073914;28;20445;-88
2022/08/02 07:57:10;;;;;;;1.83;1.73;;;26.30;75.00;;;;;;5073666;28;20535;-85
2022/08/02 07:59:36;;;;;;;1.93;1.60;;;26.30;75.80;;;;;;5074266;28;20455;-85
2022/08/02 08:02:03;;;;;;;3.30;1.70;;;26.30;74.90;;;;;;5074276;28;20530;-87
2022/08/02 08:04:30;;;;;;;1.87;1.77;;;26.30;74.80;;;;;;5074720;28;20441;-83
2022/08/02 08:06:58;;;;;;;2.07;1.90;;;26.30;74.90;;;;;;5074467;28;20488;-91
2022/08/02 08:09:26;;;;;;;1.87;1.63;;;26.30;74.80;;;;;;5074309;28;20492;-84
2022/08/02 08:11:53;;;;;;;1.93;1.73;;;26.30;74.80;;;;;;5074175;28;20569;-84
2022/08/02 08:14:20;;;;;;;1.90;1.70;;;26.30;74.70;;;;;;5074308;28;20492;-84
2022/08/02 08:16:46;;;;;;;2.00;1.70;;;26.30;74.70;;;;;;5074111;28;20536;-84
2022/08/02 08:19:13;;;;;;;2.90;1.53;;;26.30;74.60;;;;;;5073968;28;20472;-84
2022/08/02 08:21:40;;;;;;;2.93;1.60;;;26.40;74.60;;;;;;5074101;28;20573;-84
2022/08/02 08:24:07;;;;;;;2.17;1.50;;;26.30;74.50;;;;;;5074596;28;20443;-90
2022/08/02 08:26:36;;;;;;;1.70;1.60;;;26.30;74.40;;;;;;5073819;28;20500;-90
2022/08/02 08:29:05;;;;;;;1.87;1.77;;;26.30;74.40;;;;;;5074138;28;20448;-84
2022/08/02 08:31:31;;;;;;;1.63;1.50;;;26.40;74.40;;;;;;5074024;28;20512;-83
2022/08/02 08:33:58;;;;;;;1.83;1.50;;;26.30;74.30;;;;;;5073789;28;20528;-84
2022/08/02 08:36:25;;;;;;;3.00;1.70;;;26.40;74.40;;;;;;5073924;28;20486;-83
2022/08/02 08:38:52;;;;;;;1.30;1.20;;;26.40;74.40;;;;;;5074081;28;20505;-84
2022/08/02 08:41:20;;;;;;;2.07;1.87;;;26.40;74.30;;;;;;5073798;28;20437;-85
2022/08/02 08:43:49;;;;;;;1.57;1.30;;;26.40;74.30;;;;;;5073766;28;20521;-84
2022/08/02 08:46:24;;;;;;;1.53;1.43;;;26.40;74.30;;;;;;5073204;28;20489;-84
2022/08/02 08:48:58;;;;;;;1.67;1.57;;;26.40;74.30;;;;;;5073253;28;20450;-85
2022/08/02 08:51:29;;;;;;;2.47;1.40;;;26.40;74.40;;;;;;5073375;28;20868;-84
2022/08/02 08:53:59;;;;;;;2.20;1.33;;;26.30;74.30;;;;;;5073385;28;20483;-85
2022/08/02 08:56:31;;;;;;;2.80;1.50;;;26.40;74.40;;;;;;5073326;28;20467;-86
2022/08/02 08:58:59;;;;;;;1.50;1.40;;;26.40;74.40;;;;;;5073684;28;20441;-85
2022/08/02 09:01:26;;;;;;;1.20;1.10;;;26.30;74.40;;;;;;5073664;28;20988;-86
2022/08/02 09:03:53;;;;;;;2.43;1.80;;;26.40;74.40;;;;;;5073535;28;20531;-86
2022/08/02 09:06:20;;;;;;;1.37;1.27;;;26.30;74.30;;;;;;5072890;28;20481;-84
2022/08/02 09:08:47;;;;;;;1.80;1.70;;;26.40;74.40;;;;;;5073043;28;20536;-84
2022/08/02 09:11:16;;;;;;;1.30;1.17;;;26.40;74.40;;;;;;5072913;28;20477;-85
2022/08/02 09:13:50;;;;;;;3.10;1.60;;;26.40;74.40;;;;;;5072394;28;20440;-85
2022/08/02 09:16:28;;;;;;;4.30;1.40;;;26.40;74.40;;;;;;5072908;28;20780;-85
2022/08/02 09:18:56;;;;;;;4.23;1.50;;;26.40;74.40;;;;;;5073093;28;20432;-84
2022/08/02 09:21:23;;;;;;;2.07;1.53;;;26.40;74.60;;;;;;5072931;28;20502;-84
2022/08/02 09:23:51;;;;;;;2.23;1.47;;;26.40;74.60;;;;;;5073385;28;20539;-84
2022/08/02 09:26:20;;;;;;;1.60;1.50;;;26.40;74.60;;;;;;5072897;28;20484;-84
2022/08/02 09:28:50;;;;;;;2.13;1.50;;;26.40;74.60;;;;;;5073459;28;20468;-85
2022/08/02 09:31:20;;;;;;;1.50;1.40;;;26.40;74.60;;;;;;5055569;28;20477;-89
2022/08/02 09:33:53;;;;;;;2.00;1.47;;;26.40;74.50;;;;;;5073571;28;20441;-84
2022/08/02 09:36:21;;;;;;;1.70;1.60;;;26.40;74.60;;;;;;5072649;28;20463;-84
2022/08/02 09:38:57;;;;;;;1.60;1.50;;;26.40;74.60;;;;;;5073241;28;21051;-89
2022/08/02 09:41:25;;;;;;;2.70;1.90;;;26.40;74.60;;;;;;5073046;28;20936;-82
2022/08/02 09:43:54;;;;;;;1.50;1.23;;;26.40;74.70;;;;;;5072459;28;20472;-82
2022/08/02 09:46:24;;;;;;;2.63;1.80;;;26.40;74.70;;;;;;5072067;28;20480;-88
2022/08/02 09:48:53;;;;;;;1.60;1.50;;;26.40;74.70;;;;;;5072514;28;20440;-88
2022/08/02 09:51:22;;;;;;;2.20;1.70;;;26.40;75.10;;;;;;5072151;28;20962;-82
2022/08/02 09:53:51;;;;;;;1.50;1.40;;;26.40;74.60;;;;;;5071884;28;20520;-82
2022/08/02 09:56:19;;;;;;;1.40;1.30;;;26.40;74.60;;;;;;5071732;28;20560;-88
2022/08/02 09:58:46;;;;;;;3.13;1.30;;;26.40;74.60;;;;;;5072032;28;20464;-83
2022/08/02 10:01:13;;;;;;;1.80;1.67;;;26.50;74.60;;;;;;5072413;28;20432;-82
2022/08/02 10:03:54;;;;;;;2.33;2.13;;;26.50;74.70;;;;;;5073004;28;20836;-82
2022/08/02 10:06:22;;;;;;;5.90;1.50;;;26.50;74.50;;;;;;5072562;28;20483;-81
2022/08/02 10:08:49;;;;;;;1.73;1.40;;;26.40;74.60;;;;;;5072377;28;20445;-82
2022/08/02 10:11:16;;;;;;;1.80;1.60;;;26.50;74.70;;;;;;5072525;28;20495;-83
2022/08/02 10:13:44;;;;;;;1.80;1.30;;;26.50;74.70;;;;;;5072997;28;20443;-85
2022/08/02 10:16:11;;;;;;;2.07;1.53;;;26.40;75.40;;;;;;5073038;28;20437;-83
2022/08/02 10:18:38;;;;;;;1.30;1.20;;;26.40;74.60;;;;;;5073124;28;20444;-90
2022/08/02 10:21:10;;;;;;;2.53;1.50;;;26.40;74.60;;;;;;5073121;28;20437;-85
2022/08/02 10:23:39;;;;;;;1.37;1.27;;;26.50;74.70;;;;;;5072932;28;20628;-89
2022/08/02 10:26:08;;;;;;;1.50;1.20;;;26.50;74.70;;;;;;5075907;28;20526;-89
2022/08/02 10:28:36;;;;;;;2.90;1.37;;;26.50;74.70;;;;;;5076297;28;20539;-89
2022/08/02 10:31:07;;;;;;;1.70;1.40;;;26.50;74.70;;;;;;5076209;28;20512;-88
2022/08/02 10:33:37;;;;;;;1.50;1.40;;;26.50;74.70;;;;;;5076247;28;20476;-89
2022/08/02 10:36:07;;;;;;;1.43;1.23;;;26.50;74.70;;;;;;5076473;28;20436;-88
2022/08/02 10:38:34;;;;;;;2.20;1.33;;;26.50;74.80;;;;;;5076098;28;20460;-89
2022/08/02 10:41:01;;;;;;;1.70;1.60;;;26.50;74.70;;;;;;5076195;28;20437;-88
2022/08/02 10:43:43;;;;;;;1.50;1.23;;;26.40;74.70;;;;;;5075976;28;20535;-89
2022/08/02 10:46:24;;;;;;;1.60;1.50;;;26.50;74.70;;;;;;5076059;28;20443;-85
2022/08/02 10:49:11;;;;;;;3.40;1.60;;;26.50;74.70;;;;;;5075756;28;20441;-83
2022/08/02 10:52:09;;;;;;;2.70;1.30;;;26.50;74.70;;;;;;5075974;28;20432;-89
2022/08/02 10:54:39;;;;;;;1.30;1.20;;;26.50;74.70;;;;;;4994495;28;20527;-89
2022/08/02 10:57:17;;;;;;;1.63;1.53;;;26.50;74.90;;;;;;5058487;28;20443;-89
2022/08/02 10:59:44;;;;;;;1.70;1.23;;;26.50;74.80;;;;;;5075860;28;20440;-86
2022/08/02 11:02:12;;;;;;;1.73;1.57;;;26.50;74.90;;;;;;5075759;28;20795;-84
2022/08/02 11:05:15;;;;;;;1.50;1.40;;;26.40;74.70;;;;;;5076304;28;20468;-83
2022/08/02 11:07:46;;;;;;;1.30;1.20;;;26.50;74.70;;;;;;4994229;28;20490;-83
2022/08/02 11:10:38;;;;;;;1.40;1.20;;;26.40;74.80;;;;;;4994131;28;20475;-83
2022/08/02 11:13:09;;;;;;;1.70;1.27;;;26.50;74.80;;;;;;5047758;28;20524;-89
2022/08/02 11:16:03;;;;;;;1.77;1.60;;;26.40;74.80;;;;;;5075502;28;20458;-89
2022/08/02 11:19:03;;;;;;;1.60;1.40;;;26.50;74.80;;;;;;5075690;28;20459;-83
2022/08/02 11:21:31;;;;;;;1.47;1.30;;;26.50;74.90;;;;;;5075239;28;20445;-89
2022/08/02 11:24:25;;;;;;;1.57;1.47;;;26.40;74.90;;;;;;5075431;28;20475;-83
2022/08/02 11:26:53;;;;;;;1.83;1.67;;;26.50;74.90;;;;;;5075668;28;20477;-83
2022/08/02 11:29:20;;;;;;;1.50;1.37;;;26.40;74.90;;;;;;5074951;28;20428;-83
2022/08/02 11:31:48;;;;;;;1.43;1.33;;;26.50;75.00;;;;;;5075109;28;20535;-89
2022/08/02 11:34:17;;;;;;;1.60;1.50;;;26.50;74.90;;;;;;5074947;28;20536;-83
2022/08/02 11:36:45;;;;;;;1.30;1.20;;;26.50;75.00;;;;;;5056794;28;20444;-83
2022/08/02 11:39:14;;;;;;;1.50;1.40;;;26.50;74.90;;;;;;5075076;28;20439;-84
2022/08/02 11:41:43;;;;;;;1.10;1.00;;;26.50;75.00;;;;;;5074996;28;20524;-85
2022/08/02 11:44:10;;;;;;;1.60;1.50;;;26.50;74.90;;;;;;5074664;28;20439;-90
2022/08/02 11:46:37;;;;;;;3.60;1.20;;;26.50;74.90;;;;;;5074733;28;20521;-89
2022/08/02 11:49:18;;;;;;;1.83;1.63;;;26.50;74.90;;;;;;5074963;28;20451;-89
2022/08/02 11:51:56;;;;;;;1.40;1.30;;;26.50;74.90;;;;;;5074605;28;20439;-83
2022/08/02 11:54:24;;;;;;;1.70;1.40;;;26.50;75.00;;;;;;5074422;28;20432;-84
2022/08/02 11:56:53;;;;;;;1.50;1.40;;;26.50;75.00;;;;;;5074517;28;20436;-83
2022/08/02 11:59:20;;;;;;;1.70;1.30;;;26.50;74.90;;;;;;5074486;28;20520;-83
2022/08/02 12:01:47;;;;;;;1.30;1.20;;;26.50;75.00;;;;;;5074455;28;20531;-83
2022/08/02 12:04:19;;;;;;;1.30;1.20;;;26.50;75.00;;;;;;5074486;28;20531;-83
2022/08/02 12:06:57;;;;;;;1.90;1.80;;;26.50;75.00;;;;;;5074141;28;20469;-83
2022/08/02 12:09:26;;;;;;;1.50;1.40;;;26.50;74.90;;;;;;5074367;28;20532;-83
2022/08/02 12:11:55;;;;;;;1.53;1.43;;;26.50;75.00;;;;;;5074270;28;20555;-83
2022/08/02 12:14:22;;;;;;;1.60;1.50;;;26.50;75.00;;;;;;5074147;28;20536;-83
2022/08/02 12:19:35;;;;;;;1.60;1.30;;;26.50;74.90;;;;;;5074273;28;21087;-89
2022/08/02 12:22:17;;;;;;;1.33;1.23;;;26.50;75.00;;;;;;5074125;28;20437;-83
2022/08/02 12:24:46;;;;;;;1.83;1.20;;;26.50;74.90;;;;;;5073973;28;20460;-83
2022/08/02 12:30:10;;;;;;;1.50;1.40;;;26.50;75.00;;;;;;5091300;28;21037;-83
2022/08/02 12:32:38;;;;;;;1.30;1.10;;;26.50;75.00;;;;;;5070675;28;20475;-82
2022/08/02 12:35:10;;;;;;;1.50;1.40;;;26.50;75.00;;;;;;5070013;28;20433;-82
2022/08/02 12:37:39;;;;;;;1.53;1.43;;;26.50;74.90;;;;;;5070881;28;20527;-81
2022/08/02 12:40:20;;;;;;;1.30;1.20;;;26.50;75.00;;;;;;5070274;28;20448;-81
2022/08/02 12:42:48;;;;;;;4.40;1.50;;;26.60;75.00;;;;;;5070446;28;20842;-82
2022/08/02 12:45:16;;;;;;;1.40;1.30;;;26.50;75.00;;;;;;5070642;28;20992;-81
2022/08/02 12:47:48;;;;;;;1.40;1.30;;;26.50;74.90;;;;;;5070286;28;20472;-88
2022/08/02 12:50:17;;;;;;;1.60;1.50;;;26.50;75.00;;;;;;5070641;28;20942;-81
2022/08/02 12:52:44;;;;;;;1.40;1.30;;;26.50;75.00;;;;;;5070520;28;20447;-82
2022/08/02 12:55:19;;;;;;;1.30;1.20;;;26.50;75.00;;;;;;5059937;28;20462;-82
2022/08/02 12:57:57;;;;;;;1.80;1.67;;;26.50;74.90;;;;;;5048649;28;20444;-88
2022/08/02 13:00:28;;;;;;;1.43;1.33;;;26.60;75.00;;;;;;5048610;28;20528;-81
2022/08/02 13:02:55;;;;;;;1.20;1.10;;;26.50;75.00;;;;;;5050024;28;20516;-81
2022/08/02 13:05:22;;;;;;;1.30;1.20;;;26.50;75.00;;;;;;5049191;28;20444;-88
2022/08/02 13:07:49;;;;;;;1.47;1.37;;;26.50;75.90;;;;;;5049458;28;20450;-81
2022/08/02 13:10:17;;;;;;;1.47;1.30;;;26.60;75.10;;;;;;5049634;28;20592;-81
2022/08/02 13:12:44;;;;;;;1.30;1.20;;;26.60;75.50;;;;;;5049533;28;20457;-88